Time,TemperatureF,DewpointF,PressureIn,WindDirection,WindDirectionDegrees,WindSpeedMPH,WindSpeedGustMPH,Humidity,HourlyPrecipIn,Conditions,Clouds,dailyrainin,SoftwareType,DateUTC
2013-02-04 00:02:00,48.0,29.2,30.10,East,90,0.0,-999.0,48,0.00,,,0.00,Wunderground v.1.15,2013-02-04 08:02:00,
2013-02-04 00:03:00,48.0,29.2,30.10,East,90,0.0,-999.0,48,0.00,,,0.00,Wunderground v.1.15,2013-02-04 08:03:00,
2013-02-04 00:07:00,48.0,29.2,30.10,East,90,0.0,-999.0,48,0.00,,,0.00,Wunderground v.1.15,2013-02-04 08:07:00,
2013-02-04 00:08:00,48.0,29.2,30.10,East,90,0.0,-999.0,48,0.00,,,0.00,Wunderground v.1.15,2013-02-04 08:08:00,
2013-02-04 00:12:00,48.0,29.2,30.10,East,90,0.0,-999.0,48,0.00,,,0.00,Wunderground v.1.15,2013-02-04 08:12:00,
2013-02-04 00:13:00,48.0,29.2,30.10,East,90,0.0,-999.0,48,0.00,,,0.00,Wunderground v.1.15,2013-02-04 08:13:00,
2013-02-04 00:17:00,48.0,29.2,30.10,East,90,0.0,-999.0,48,0.00,,,0.00,Wunderground v.1.15,2013-02-04 08:17:00,
2013-02-04 00:18:00,48.0,29.2,30.10,East,90,0.0,-999.0,48,0.00,,,0.00,Wunderground v.1.15,2013-02-04 08:18:00,
2013-02-04 00:22:00,48.0,29.2,30.10,East,90,0.0,-999.0,48,0.00,,,0.00,Wunderground v.1.15,2013-02-04 08:22:00,
2013-02-04 00:23:00,48.0,29.2,30.10,East,90,0.0,-999.0,48,0.00,,,0.00,Wunderground v.1.15,2013-02-04 08:23:00,
2013-02-04 00:27:00,48.0,29.2,30.10,East,90,0.0,-999.0,48,0.00,,,0.00,Wunderground v.1.15,2013-02-04 08:27:00,
2013-02-04 00:28:00,48.0,29.2,30.10,East,90,0.0,-999.0,48,0.00,,,0.00,Wunderground v.1.15,2013-02-04 08:28:00,
2013-02-04 00:32:00,48.0,29.2,30.10,East,90,0.0,-999.0,48,0.00,,,0.00,Wunderground v.1.15,2013-02-04 08:32:00,
2013-02-04 00:33:00,48.0,29.2,30.10,East,90,0.0,-999.0,48,0.00,,,0.00,Wunderground v.1.15,2013-02-04 08:33:00,
2013-02-04 00:37:00,48.0,29.2,30.10,East,90,0.0,-999.0,48,0.00,,,0.00,Wunderground v.1.15,2013-02-04 08:37:00,
2013-02-04 00:38:00,48.0,29.2,30.10,East,90,0.0,-999.0,48,0.00,,,0.00,Wunderground v.1.15,2013-02-04 08:38:00,
2013-02-04 00:42:00,48.0,29.2,30.10,East,90,0.0,-999.0,48,0.00,,,0.00,Wunderground v.1.15,2013-02-04 08:42:00,
2013-02-04 00:43:00,48.0,29.2,30.10,East,90,0.0,-999.0,48,0.00,,,0.00,Wunderground v.1.15,2013-02-04 08:43:00,
2013-02-04 00:47:00,47.8,28.0,30.09,East,90,1.0,-999.0,46,0.00,,,0.00,Wunderground v.1.15,2013-02-04 08:47:00,
2013-02-04 00:48:00,47.8,28.0,30.09,East,90,1.0,-999.0,46,0.00,,,0.00,Wunderground v.1.15,2013-02-04 08:48:00,
2013-02-04 00:52:00,47.8,28.0,30.09,East,90,1.0,-999.0,46,0.00,,,0.00,Wunderground v.1.15,2013-02-04 08:52:00,
2013-02-04 00:53:00,47.8,28.0,30.09,East,90,1.0,-999.0,46,0.00,,,0.00,Wunderground v.1.15,2013-02-04 08:53:00,
2013-02-04 00:57:00,47.8,28.0,30.09,East,90,1.0,-999.0,46,0.00,,,0.00,Wunderground v.1.15,2013-02-04 08:57:00,
2013-02-04 00:58:00,47.8,28.0,30.09,East,90,1.0,-999.0,46,0.00,,,0.00,Wunderground v.1.15,2013-02-04 08:58:00,
2013-02-04 01:02:00,47.8,28.0,30.09,East,90,1.0,-999.0,46,0.00,,,0.00,Wunderground v.1.15,2013-02-04 09:02:00,
2013-02-04 01:03:00,47.8,28.0,30.09,East,90,1.0,-999.0,46,0.00,,,0.00,Wunderground v.1.15,2013-02-04 09:03:00,
2013-02-04 01:07:00,47.8,28.0,30.09,East,90,1.0,-999.0,46,0.00,,,0.00,Wunderground v.1.15,2013-02-04 09:07:00,
2013-02-04 01:08:00,47.8,28.0,30.09,East,90,1.0,-999.0,46,0.00,,,0.00,Wunderground v.1.15,2013-02-04 09:08:00,
2013-02-04 01:12:00,47.8,28.0,30.09,East,90,1.0,-999.0,46,0.00,,,0.00,Wunderground v.1.15,2013-02-04 09:12:00,
2013-02-04 01:13:00,47.8,28.0,30.09,East,90,1.0,-999.0,46,0.00,,,0.00,Wunderground v.1.15,2013-02-04 09:13:00,
2013-02-04 01:17:00,48.1,26.1,30.10,East,90,2.0,-999.0,42,0.00,,,0.00,Wunderground v.1.15,2013-02-04 09:17:00,
2013-02-04 01:18:00,48.1,26.1,30.10,East,90,2.0,-999.0,42,0.00,,,0.00,Wunderground v.1.15,2013-02-04 09:18:00,
2013-02-04 01:22:00,48.1,26.1,30.10,East,90,2.0,-999.0,42,0.00,,,0.00,Wunderground v.1.15,2013-02-04 09:22:00,
2013-02-04 01:23:00,48.1,26.1,30.10,East,90,2.0,-999.0,42,0.00,,,0.00,Wunderground v.1.15,2013-02-04 09:23:00,
2013-02-04 01:27:00,48.1,26.1,30.10,East,90,2.0,-999.0,42,0.00,,,0.00,Wunderground v.1.15,2013-02-04 09:27:00,
2013-02-04 01:28:00,48.1,26.1,30.10,East,90,2.0,-999.0,42,0.00,,,0.00,Wunderground v.1.15,2013-02-04 09:28:00,
2013-02-04 01:32:00,48.1,26.1,30.10,East,90,2.0,-999.0,42,0.00,,,0.00,Wunderground v.1.15,2013-02-04 09:32:00,
2013-02-04 01:33:00,48.1,26.1,30.10,East,90,2.0,-999.0,42,0.00,,,0.00,Wunderground v.1.15,2013-02-04 09:33:00,
2013-02-04 01:37:00,48.1,26.1,30.10,East,90,2.0,-999.0,42,0.00,,,0.00,Wunderground v.1.15,2013-02-04 09:37:00,
2013-02-04 01:38:00,48.1,26.1,30.10,East,90,2.0,-999.0,42,0.00,,,0.00,Wunderground v.1.15,2013-02-04 09:38:00,
2013-02-04 01:42:00,48.1,26.1,30.10,East,90,2.0,-999.0,42,0.00,,,0.00,Wunderground v.1.15,2013-02-04 09:42:00,
2013-02-04 01:43:00,48.1,26.1,30.10,East,90,2.0,-999.0,42,0.00,,,0.00,Wunderground v.1.15,2013-02-04 09:43:00,
2013-02-04 01:47:00,48.0,25.4,30.10,ESE,113,1.0,-999.0,41,0.00,,,0.00,Wunderground v.1.15,2013-02-04 09:47:00,
2013-02-04 01:48:00,48.0,25.4,30.10,ESE,113,1.0,-999.0,41,0.00,,,0.00,Wunderground v.1.15,2013-02-04 09:48:00,
2013-02-04 01:52:00,48.0,25.4,30.10,ESE,113,1.0,-999.0,41,0.00,,,0.00,Wunderground v.1.15,2013-02-04 09:52:00,
2013-02-04 01:53:00,48.0,25.4,30.10,ESE,113,1.0,-999.0,41,0.00,,,0.00,Wunderground v.1.15,2013-02-04 09:53:00,
2013-02-04 01:57:00,48.0,25.4,30.10,ESE,113,1.0,-999.0,41,0.00,,,0.00,Wunderground v.1.15,2013-02-04 09:57:00,
2013-02-04 01:58:00,48.0,25.4,30.10,ESE,113,1.0,-999.0,41,0.00,,,0.00,Wunderground v.1.15,2013-02-04 09:58:00,
2013-02-04 02:02:00,48.0,25.4,30.10,ESE,113,1.0,-999.0,41,0.00,,,0.00,Wunderground v.1.15,2013-02-04 10:02:00,
2013-02-04 02:03:00,48.0,25.4,30.10,ESE,113,1.0,-999.0,41,0.00,,,0.00,Wunderground v.1.15,2013-02-04 10:03:00,
2013-02-04 02:07:00,48.0,25.4,30.10,ESE,113,1.0,-999.0,41,0.00,,,0.00,Wunderground v.1.15,2013-02-04 10:07:00,
2013-02-04 02:08:00,48.0,25.4,30.10,ESE,113,1.0,-999.0,41,0.00,,,0.00,Wunderground v.1.15,2013-02-04 10:08:00,
2013-02-04 02:12:00,48.0,25.4,30.10,ESE,113,1.0,-999.0,41,0.00,,,0.00,Wunderground v.1.15,2013-02-04 10:12:00,
2013-02-04 02:13:00,48.0,25.4,30.10,ESE,113,1.0,-999.0,41,0.00,,,0.00,Wunderground v.1.15,2013-02-04 10:13:00,
2013-02-04 02:17:00,48.7,22.9,30.09,East,90,0.0,-999.0,36,0.00,,,0.00,Wunderground v.1.15,2013-02-04 10:17:00,
2013-02-04 02:18:00,48.7,22.9,30.09,East,90,0.0,-999.0,36,0.00,,,0.00,Wunderground v.1.15,2013-02-04 10:18:00,
2013-02-04 02:22:00,48.7,22.9,30.09,East,90,0.0,-999.0,36,0.00,,,0.00,Wunderground v.1.15,2013-02-04 10:22:00,
2013-02-04 02:23:00,48.7,22.9,30.09,East,90,0.0,-999.0,36,0.00,,,0.00,Wunderground v.1.15,2013-02-04 10:23:00,
2013-02-04 02:27:00,48.7,22.9,30.09,East,90,0.0,-999.0,36,0.00,,,0.00,Wunderground v.1.15,2013-02-04 10:27:00,
2013-02-04 02:28:00,48.7,22.9,30.09,East,90,0.0,-999.0,36,0.00,,,0.00,Wunderground v.1.15,2013-02-04 10:28:00,
2013-02-04 02:32:00,48.7,22.9,30.09,East,90,0.0,-999.0,36,0.00,,,0.00,Wunderground v.1.15,2013-02-04 10:32:00,
2013-02-04 02:33:00,48.7,22.9,30.09,East,90,0.0,-999.0,36,0.00,,,0.00,Wunderground v.1.15,2013-02-04 10:33:00,
2013-02-04 02:37:00,48.7,22.9,30.09,East,90,0.0,-999.0,36,0.00,,,0.00,Wunderground v.1.15,2013-02-04 10:37:00,
2013-02-04 02:38:00,48.7,22.9,30.09,East,90,0.0,-999.0,36,0.00,,,0.00,Wunderground v.1.15,2013-02-04 10:38:00,
2013-02-04 02:42:00,48.7,22.9,30.09,East,90,0.0,-999.0,36,0.00,,,0.00,Wunderground v.1.15,2013-02-04 10:42:00,
2013-02-04 02:43:00,48.7,22.9,30.09,East,90,0.0,-999.0,36,0.00,,,0.00,Wunderground v.1.15,2013-02-04 10:43:00,
2013-02-04 02:47:00,47.8,23.4,30.09,ESE,113,0.0,-999.0,38,0.00,,,0.00,Wunderground v.1.15,2013-02-04 10:47:00,
2013-02-04 02:48:00,47.8,23.4,30.09,ESE,113,0.0,-999.0,38,0.00,,,0.00,Wunderground v.1.15,2013-02-04 10:48:00,
2013-02-04 02:52:00,47.8,23.4,30.09,ESE,113,0.0,-999.0,38,0.00,,,0.00,Wunderground v.1.15,2013-02-04 10:52:00,
2013-02-04 02:53:00,47.8,23.4,30.09,ESE,113,0.0,-999.0,38,0.00,,,0.00,Wunderground v.1.15,2013-02-04 10:53:00,
2013-02-04 02:57:00,47.8,23.4,30.09,ESE,113,0.0,-999.0,38,0.00,,,0.00,Wunderground v.1.15,2013-02-04 10:57:00,
2013-02-04 02:58:00,47.8,23.4,30.09,ESE,113,0.0,-999.0,38,0.00,,,0.00,Wunderground v.1.15,2013-02-04 10:58:00,
2013-02-04 03:02:00,47.8,23.4,30.09,ESE,113,0.0,-999.0,38,0.00,,,0.00,Wunderground v.1.15,2013-02-04 11:02:00,
2013-02-04 03:03:00,47.8,23.4,30.09,ESE,113,0.0,-999.0,38,0.00,,,0.00,Wunderground v.1.15,2013-02-04 11:03:00,
2013-02-04 03:07:00,47.8,23.4,30.09,ESE,113,0.0,-999.0,38,0.00,,,0.00,Wunderground v.1.15,2013-02-04 11:07:00,
2013-02-04 03:08:00,47.8,23.4,30.09,ESE,113,0.0,-999.0,38,0.00,,,0.00,Wunderground v.1.15,2013-02-04 11:08:00,
2013-02-04 03:12:00,47.8,23.4,30.09,ESE,113,0.0,-999.0,38,0.00,,,0.00,Wunderground v.1.15,2013-02-04 11:12:00,
2013-02-04 03:13:00,47.8,23.4,30.09,ESE,113,0.0,-999.0,38,0.00,,,0.00,Wunderground v.1.15,2013-02-04 11:13:00,
2013-02-04 03:17:00,48.1,38.0,30.09,SW,225,0.0,-999.0,68,0.00,,,0.00,Wunderground v.1.15,2013-02-04 11:17:00,
2013-02-04 03:18:00,48.1,38.0,30.09,SW,225,0.0,-999.0,68,0.00,,,0.00,Wunderground v.1.15,2013-02-04 11:18:00,
2013-02-04 03:22:00,48.1,38.0,30.09,SW,225,0.0,-999.0,68,0.00,,,0.00,Wunderground v.1.15,2013-02-04 11:22:00,
2013-02-04 03:23:00,48.1,38.0,30.09,SW,225,0.0,-999.0,68,0.00,,,0.00,Wunderground v.1.15,2013-02-04 11:23:00,
2013-02-04 03:27:00,48.1,38.0,30.09,SW,225,0.0,-999.0,68,0.00,,,0.00,Wunderground v.1.15,2013-02-04 11:27:00,
2013-02-04 03:28:00,48.1,38.0,30.09,SW,225,0.0,-999.0,68,0.00,,,0.00,Wunderground v.1.15,2013-02-04 11:28:00,
2013-02-04 03:32:00,48.1,38.0,30.09,SW,225,0.0,-999.0,68,0.00,,,0.00,Wunderground v.1.15,2013-02-04 11:32:00,
2013-02-04 03:33:00,48.1,38.0,30.09,SW,225,0.0,-999.0,68,0.00,,,0.00,Wunderground v.1.15,2013-02-04 11:33:00,
2013-02-04 03:37:00,48.1,38.0,30.09,SW,225,0.0,-999.0,68,0.00,,,0.00,Wunderground v.1.15,2013-02-04 11:37:00,
2013-02-04 03:38:00,48.1,38.0,30.09,SW,225,0.0,-999.0,68,0.00,,,0.00,Wunderground v.1.15,2013-02-04 11:38:00,
2013-02-04 03:42:00,48.1,38.0,30.09,SW,225,0.0,-999.0,68,0.00,,,0.00,Wunderground v.1.15,2013-02-04 11:42:00,
2013-02-04 03:43:00,48.1,38.0,30.09,SW,225,0.0,-999.0,68,0.00,,,0.00,Wunderground v.1.15,2013-02-04 11:43:00,
2013-02-04 03:47:00,46.5,25.7,30.08,ESE,113,0.0,-999.0,44,0.00,,,0.00,Wunderground v.1.15,2013-02-04 11:47:00,
2013-02-04 03:48:00,46.5,25.7,30.08,ESE,113,0.0,-999.0,44,0.00,,,0.00,Wunderground v.1.15,2013-02-04 11:48:00,
2013-02-04 03:52:00,46.5,25.7,30.08,ESE,113,0.0,-999.0,44,0.00,,,0.00,Wunderground v.1.15,2013-02-04 11:52:00,
2013-02-04 03:53:00,46.5,25.7,30.08,ESE,113,0.0,-999.0,44,0.00,,,0.00,Wunderground v.1.15,2013-02-04 11:53:00,
2013-02-04 03:57:00,46.5,25.7,30.08,ESE,113,0.0,-999.0,44,0.00,,,0.00,Wunderground v.1.15,2013-02-04 11:57:00,
2013-02-04 03:58:00,46.5,25.7,30.08,ESE,113,0.0,-999.0,44,0.00,,,0.00,Wunderground v.1.15,2013-02-04 11:58:00,
2013-02-04 04:02:00,46.5,25.7,30.08,ESE,113,0.0,-999.0,44,0.00,,,0.00,Wunderground v.1.15,2013-02-04 12:02:00,
2013-02-04 04:03:00,46.5,25.7,30.08,ESE,113,0.0,-999.0,44,0.00,,,0.00,Wunderground v.1.15,2013-02-04 12:03:00,
2013-02-04 04:07:00,46.5,25.7,30.08,ESE,113,0.0,-999.0,44,0.00,,,0.00,Wunderground v.1.15,2013-02-04 12:07:00,
2013-02-04 04:08:00,46.5,25.7,30.08,ESE,113,0.0,-999.0,44,0.00,,,0.00,Wunderground v.1.15,2013-02-04 12:08:00,
2013-02-04 04:12:00,46.5,25.7,30.08,ESE,113,0.0,-999.0,44,0.00,,,0.00,Wunderground v.1.15,2013-02-04 12:12:00,
2013-02-04 04:13:00,46.5,25.7,30.08,ESE,113,0.0,-999.0,44,0.00,,,0.00,Wunderground v.1.15,2013-02-04 12:13:00,
2013-02-04 04:17:00,44.8,32.2,30.08,East,90,1.0,-999.0,61,0.00,,,0.00,Wunderground v.1.15,2013-02-04 12:17:00,
2013-02-04 04:18:00,44.8,32.2,30.08,East,90,1.0,-999.0,61,0.00,,,0.00,Wunderground v.1.15,2013-02-04 12:18:00,
2013-02-04 04:22:00,44.8,32.2,30.08,East,90,1.0,-999.0,61,0.00,,,0.00,Wunderground v.1.15,2013-02-04 12:22:00,
2013-02-04 04:23:00,44.8,32.2,30.08,East,90,1.0,-999.0,61,0.00,,,0.00,Wunderground v.1.15,2013-02-04 12:23:00,
2013-02-04 04:27:00,44.8,32.2,30.08,East,90,1.0,-999.0,61,0.00,,,0.00,Wunderground v.1.15,2013-02-04 12:27:00,
2013-02-04 04:28:00,44.8,32.2,30.08,East,90,1.0,-999.0,61,0.00,,,0.00,Wunderground v.1.15,2013-02-04 12:28:00,
2013-02-04 04:32:00,44.8,32.2,30.08,East,90,1.0,-999.0,61,0.00,,,0.00,Wunderground v.1.15,2013-02-04 12:32:00,
2013-02-04 04:33:00,44.8,32.2,30.08,East,90,1.0,-999.0,61,0.00,,,0.00,Wunderground v.1.15,2013-02-04 12:33:00,
2013-02-04 04:37:00,44.8,32.2,30.08,East,90,1.0,-999.0,61,0.00,,,0.00,Wunderground v.1.15,2013-02-04 12:37:00,
2013-02-04 04:38:00,44.8,32.2,30.08,East,90,1.0,-999.0,61,0.00,,,0.00,Wunderground v.1.15,2013-02-04 12:38:00,
2013-02-04 04:42:00,44.8,32.2,30.08,East,90,1.0,-999.0,61,0.00,,,0.00,Wunderground v.1.15,2013-02-04 12:42:00,
2013-02-04 04:43:00,44.8,32.2,30.08,East,90,1.0,-999.0,61,0.00,,,0.00,Wunderground v.1.15,2013-02-04 12:43:00,
2013-02-04 04:47:00,47.7,23.3,30.08,ENE,68,2.0,-999.0,38,0.00,,,0.00,Wunderground v.1.15,2013-02-04 12:47:00,
2013-02-04 04:48:00,47.7,23.3,30.08,ENE,68,2.0,-999.0,38,0.00,,,0.00,Wunderground v.1.15,2013-02-04 12:48:00,
2013-02-04 04:52:00,47.7,23.3,30.08,ENE,68,2.0,-999.0,38,0.00,,,0.00,Wunderground v.1.15,2013-02-04 12:52:00,
2013-02-04 04:53:00,47.7,23.3,30.08,ENE,68,2.0,-999.0,38,0.00,,,0.00,Wunderground v.1.15,2013-02-04 12:53:00,
2013-02-04 04:57:00,47.7,23.3,30.08,ENE,68,2.0,-999.0,38,0.00,,,0.00,Wunderground v.1.15,2013-02-04 12:57:00,
2013-02-04 04:58:00,47.7,23.3,30.08,ENE,68,2.0,-999.0,38,0.00,,,0.00,Wunderground v.1.15,2013-02-04 12:58:00,
2013-02-04 05:02:00,47.7,23.3,30.08,ENE,68,2.0,-999.0,38,0.00,,,0.00,Wunderground v.1.15,2013-02-04 13:02:00,
2013-02-04 05:03:00,47.7,23.3,30.08,ENE,68,2.0,-999.0,38,0.00,,,0.00,Wunderground v.1.15,2013-02-04 13:03:00,
2013-02-04 05:07:00,47.7,23.3,30.08,ENE,68,2.0,-999.0,38,0.00,,,0.00,Wunderground v.1.15,2013-02-04 13:07:00,
2013-02-04 05:08:00,47.7,23.3,30.08,ENE,68,2.0,-999.0,38,0.00,,,0.00,Wunderground v.1.15,2013-02-04 13:08:00,
2013-02-04 05:12:00,47.7,23.3,30.08,ENE,68,2.0,-999.0,38,0.00,,,0.00,Wunderground v.1.15,2013-02-04 13:12:00,
2013-02-04 05:13:00,47.7,23.3,30.08,ENE,68,2.0,-999.0,38,0.00,,,0.00,Wunderground v.1.15,2013-02-04 13:13:00,
2013-02-04 05:17:00,48.1,23.7,30.08,ENE,68,1.0,-999.0,38,0.00,,,0.00,Wunderground v.1.15,2013-02-04 13:17:00,
2013-02-04 05:18:00,48.1,23.7,30.08,ENE,68,1.0,-999.0,38,0.00,,,0.00,Wunderground v.1.15,2013-02-04 13:18:00,
2013-02-04 05:22:00,48.1,23.7,30.08,ENE,68,1.0,-999.0,38,0.00,,,0.00,Wunderground v.1.15,2013-02-04 13:22:00,
2013-02-04 05:23:00,48.1,23.7,30.08,ENE,68,1.0,-999.0,38,0.00,,,0.00,Wunderground v.1.15,2013-02-04 13:23:00,
2013-02-04 05:27:00,48.1,23.7,30.08,ENE,68,1.0,-999.0,38,0.00,,,0.00,Wunderground v.1.15,2013-02-04 13:27:00,
2013-02-04 05:28:00,48.1,23.7,30.08,ENE,68,1.0,-999.0,38,0.00,,,0.00,Wunderground v.1.15,2013-02-04 13:28:00,
2013-02-04 05:32:00,48.1,23.7,30.08,ENE,68,1.0,-999.0,38,0.00,,,0.00,Wunderground v.1.15,2013-02-04 13:32:00,
2013-02-04 05:33:00,48.1,23.7,30.08,ENE,68,1.0,-999.0,38,0.00,,,0.00,Wunderground v.1.15,2013-02-04 13:33:00,
2013-02-04 05:37:00,48.1,23.7,30.08,ENE,68,1.0,-999.0,38,0.00,,,0.00,Wunderground v.1.15,2013-02-04 13:37:00,
2013-02-04 05:38:00,48.1,23.7,30.08,ENE,68,1.0,-999.0,38,0.00,,,0.00,Wunderground v.1.15,2013-02-04 13:38:00,
2013-02-04 05:42:00,48.1,23.7,30.08,ENE,68,1.0,-999.0,38,0.00,,,0.00,Wunderground v.1.15,2013-02-04 13:42:00,
2013-02-04 05:43:00,48.1,23.7,30.08,ENE,68,1.0,-999.0,38,0.00,,,0.00,Wunderground v.1.15,2013-02-04 13:43:00,
2013-02-04 05:47:00,48.0,34.3,30.08,ENE,68,0.0,-999.0,59,0.00,,,0.00,Wunderground v.1.15,2013-02-04 13:47:00,
2013-02-04 05:48:00,48.0,34.3,30.08,ENE,68,0.0,-999.0,59,0.00,,,0.00,Wunderground v.1.15,2013-02-04 13:48:00,
2013-02-04 05:52:00,48.0,34.3,30.08,ENE,68,0.0,-999.0,59,0.00,,,0.00,Wunderground v.1.15,2013-02-04 13:52:00,
2013-02-04 05:53:00,48.0,34.3,30.08,ENE,68,0.0,-999.0,59,0.00,,,0.00,Wunderground v.1.15,2013-02-04 13:53:00,
2013-02-04 05:57:00,48.0,34.3,30.08,ENE,68,0.0,-999.0,59,0.00,,,0.00,Wunderground v.1.15,2013-02-04 13:57:00,
2013-02-04 05:58:00,48.0,34.3,30.08,ENE,68,0.0,-999.0,59,0.00,,,0.00,Wunderground v.1.15,2013-02-04 13:58:00,
2013-02-04 06:02:00,48.0,34.3,30.08,ENE,68,0.0,-999.0,59,0.00,,,0.00,Wunderground v.1.15,2013-02-04 14:02:00,
2013-02-04 06:03:00,48.0,34.3,30.08,ENE,68,0.0,-999.0,59,0.00,,,0.00,Wunderground v.1.15,2013-02-04 14:03:00,
2013-02-04 06:07:00,48.0,34.3,30.08,ENE,68,0.0,-999.0,59,0.00,,,0.00,Wunderground v.1.15,2013-02-04 14:07:00,
2013-02-04 06:08:00,48.0,34.3,30.08,ENE,68,0.0,-999.0,59,0.00,,,0.00,Wunderground v.1.15,2013-02-04 14:08:00,
2013-02-04 06:12:00,48.0,34.3,30.08,ENE,68,0.0,-999.0,59,0.00,,,0.00,Wunderground v.1.15,2013-02-04 14:12:00,
2013-02-04 06:13:00,48.0,34.3,30.08,ENE,68,0.0,-999.0,59,0.00,,,0.00,Wunderground v.1.15,2013-02-04 14:13:00,
2013-02-04 06:17:00,47.0,33.4,30.09,WNW,293,0.0,-999.0,59,0.00,,,0.00,Wunderground v.1.15,2013-02-04 14:17:00,
2013-02-04 06:18:00,47.0,33.4,30.09,WNW,293,0.0,-999.0,59,0.00,,,0.00,Wunderground v.1.15,2013-02-04 14:18:00,
2013-02-04 06:22:00,47.0,33.4,30.09,WNW,293,0.0,-999.0,59,0.00,,,0.00,Wunderground v.1.15,2013-02-04 14:22:00,
2013-02-04 06:23:00,47.0,33.4,30.09,WNW,293,0.0,-999.0,59,0.00,,,0.00,Wunderground v.1.15,2013-02-04 14:23:00,
2013-02-04 06:27:00,47.0,33.4,30.09,WNW,293,0.0,-999.0,59,0.00,,,0.00,Wunderground v.1.15,2013-02-04 14:27:00,
2013-02-04 06:28:00,47.0,33.4,30.09,WNW,293,0.0,-999.0,59,0.00,,,0.00,Wunderground v.1.15,2013-02-04 14:28:00,
2013-02-04 06:32:00,47.0,33.4,30.09,WNW,293,0.0,-999.0,59,0.00,,,0.00,Wunderground v.1.15,2013-02-04 14:32:00,
2013-02-04 06:33:00,47.0,33.4,30.09,WNW,293,0.0,-999.0,59,0.00,,,0.00,Wunderground v.1.15,2013-02-04 14:33:00,
2013-02-04 06:38:00,47.0,33.4,30.09,WNW,293,0.0,-999.0,59,0.00,,,0.00,Wunderground v.1.15,2013-02-04 14:38:00,
2013-02-04 06:43:00,47.0,33.4,30.09,WNW,293,0.0,-999.0,59,0.00,,,0.00,Wunderground v.1.15,2013-02-04 14:43:00,
2013-02-04 06:48:00,47.2,34.8,30.09,WNW,293,0.0,-999.0,62,0.00,,,0.00,Wunderground v.1.15,2013-02-04 14:48:00,
2013-02-04 06:53:00,47.2,34.8,30.09,WNW,293,0.0,-999.0,62,0.00,,,0.00,Wunderground v.1.15,2013-02-04 14:53:00,
2013-02-04 06:58:00,47.2,34.8,30.09,WNW,293,0.0,-999.0,62,0.00,,,0.00,Wunderground v.1.15,2013-02-04 14:58:00,
2013-02-04 07:03:00,47.2,34.8,30.09,WNW,293,0.0,-999.0,62,0.00,,,0.00,Wunderground v.1.15,2013-02-04 15:03:00,
2013-02-04 07:08:00,47.2,34.8,30.09,WNW,293,0.0,-999.0,62,0.00,,,0.00,Wunderground v.1.15,2013-02-04 15:08:00,
2013-02-04 07:13:00,47.2,34.8,30.09,WNW,293,0.0,-999.0,62,0.00,,,0.00,Wunderground v.1.15,2013-02-04 15:13:00,
2013-02-04 07:18:00,47.3,35.3,30.09,WNW,293,0.0,-999.0,63,0.00,,,0.00,Wunderground v.1.15,2013-02-04 15:18:00,
2013-02-04 07:23:00,47.3,35.3,30.09,WNW,293,0.0,-999.0,63,0.00,,,0.00,Wunderground v.1.15,2013-02-04 15:23:00,
2013-02-04 07:28:00,47.3,35.3,30.09,WNW,293,0.0,-999.0,63,0.00,,,0.00,Wunderground v.1.15,2013-02-04 15:28:00,
2013-02-04 07:31:00,47.3,35.3,30.09,WNW,293,0.0,-999.0,63,0.00,,,0.00,Wunderground v.1.15,2013-02-04 15:31:00,
2013-02-04 07:33:00,47.3,35.3,30.09,WNW,293,0.0,-999.0,63,0.00,,,0.00,Wunderground v.1.15,2013-02-04 15:33:00,
2013-02-04 07:35:00,47.3,35.3,30.09,WNW,293,0.0,0.0,63,0.00,,,0.00,Wunderground v.1.15,2013-02-04 15:35:00,
2013-02-04 07:36:00,47.3,35.3,30.09,WNW,293,0.0,-999.0,63,0.00,,,0.00,Wunderground v.1.15,2013-02-04 15:36:00,
2013-02-04 07:38:00,47.3,35.3,30.09,WNW,293,0.0,-999.0,63,0.00,,,0.00,Wunderground v.1.15,2013-02-04 15:38:00,
2013-02-04 07:41:00,47.3,35.3,30.09,WNW,293,0.0,-999.0,63,0.00,,,0.00,Wunderground v.1.15,2013-02-04 15:41:00,
2013-02-04 07:43:00,47.3,35.3,30.09,WNW,293,0.0,-999.0,63,0.00,,,0.00,Wunderground v.1.15,2013-02-04 15:43:00,
2013-02-04 07:45:00,47.7,29.5,30.10,NW,319,0.0,0.0,49,0.00,,,0.00,Wunderground v.1.15,2013-02-04 15:45:00,
2013-02-04 07:46:00,49.1,29.7,30.10,NW,315,0.0,-999.0,47,0.00,,,0.00,Wunderground v.1.15,2013-02-04 15:46:00,
2013-02-04 07:48:00,49.1,29.7,30.10,NW,315,0.0,-999.0,47,0.00,,,0.00,Wunderground v.1.15,2013-02-04 15:48:00,
2013-02-04 07:51:00,49.1,29.7,30.10,NW,315,0.0,-999.0,47,0.00,,,0.00,Wunderground v.1.15,2013-02-04 15:51:00,
2013-02-04 07:53:00,49.1,29.7,30.10,NW,315,0.0,-999.0,47,0.00,,,0.00,Wunderground v.1.15,2013-02-04 15:53:00,
2013-02-04 07:55:00,48.7,29.9,30.10,NW,319,0.0,0.0,48,0.00,,,0.00,Wunderground v.1.15,2013-02-04 15:55:00,
2013-02-04 07:56:00,49.1,29.7,30.10,NW,315,0.0,-999.0,47,0.00,,,0.00,Wunderground v.1.15,2013-02-04 15:56:00,
2013-02-04 07:58:00,49.1,29.7,30.10,NW,315,0.0,-999.0,47,0.00,,,0.00,Wunderground v.1.15,2013-02-04 15:58:00,
2013-02-04 08:01:00,49.1,29.7,30.10,NW,315,0.0,-999.0,47,0.00,,,0.00,Wunderground v.1.15,2013-02-04 16:01:00,
2013-02-04 08:03:00,49.1,29.7,30.10,NW,315,0.0,-999.0,47,0.00,,,0.00,Wunderground v.1.15,2013-02-04 16:03:00,
2013-02-04 08:05:00,49.0,29.1,30.10,NE,44,0.0,1.0,46,0.00,,,0.00,Wunderground v.1.15,2013-02-04 16:05:00,
2013-02-04 08:06:00,49.1,29.7,30.10,NW,315,0.0,-999.0,47,0.00,,,0.00,Wunderground v.1.15,2013-02-04 16:06:00,
2013-02-04 08:08:00,49.1,29.7,30.10,NW,315,0.0,-999.0,47,0.00,,,0.00,Wunderground v.1.15,2013-02-04 16:08:00,
2013-02-04 08:10:00,48.8,29.4,30.10,NE,49,1.0,1.0,47,0.00,,,0.00,Wunderground v.1.15,2013-02-04 16:10:00,
2013-02-04 08:11:00,49.1,29.7,30.10,NW,315,0.0,-999.0,47,0.00,,,0.00,Wunderground v.1.15,2013-02-04 16:11:00,
2013-02-04 08:13:00,49.1,29.7,30.10,NW,315,0.0,-999.0,47,0.00,,,0.00,Wunderground v.1.15,2013-02-04 16:13:00,
2013-02-04 08:16:00,51.2,26.4,30.11,NE,45,0.0,-999.0,38,0.00,,,0.00,Wunderground v.1.15,2013-02-04 16:16:00,
2013-02-04 08:18:00,51.2,26.4,30.11,NE,45,0.0,-999.0,38,0.00,,,0.00,Wunderground v.1.15,2013-02-04 16:18:00,
2013-02-04 08:20:00,50.0,27.2,30.11,NE,49,0.0,1.0,41,0.00,,,0.00,Wunderground v.1.15,2013-02-04 16:20:00,
2013-02-04 08:21:00,51.2,26.4,30.11,NE,45,0.0,-999.0,38,0.00,,,0.00,Wunderground v.1.15,2013-02-04 16:21:00,
2013-02-04 08:23:00,51.2,26.4,30.11,NE,45,0.0,-999.0,38,0.00,,,0.00,Wunderground v.1.15,2013-02-04 16:23:00,
2013-02-04 08:26:00,51.2,26.4,30.11,NE,45,0.0,-999.0,38,0.00,,,0.00,Wunderground v.1.15,2013-02-04 16:26:00,
2013-02-04 08:28:00,51.2,26.4,30.11,NE,45,0.0,-999.0,38,0.00,,,0.00,Wunderground v.1.15,2013-02-04 16:28:00,
2013-02-04 08:30:00,51.2,26.4,30.11,NNE,15,0.0,0.0,38,0.00,,,0.00,Wunderground v.1.15,2013-02-04 16:30:00,
2013-02-04 08:31:00,51.2,26.4,30.11,NE,45,0.0,-999.0,38,0.00,,,0.00,Wunderground v.1.15,2013-02-04 16:31:00,
2013-02-04 08:33:00,51.2,26.4,30.11,NE,45,0.0,-999.0,38,0.00,,,0.00,Wunderground v.1.15,2013-02-04 16:33:00,
2013-02-04 08:35:00,51.4,27.2,30.12,ENE,63,1.0,1.0,39,0.00,,,0.00,Wunderground v.1.15,2013-02-04 16:35:00,
2013-02-04 08:36:00,51.2,26.4,30.11,NE,45,0.0,-999.0,38,0.00,,,0.00,Wunderground v.1.15,2013-02-04 16:36:00,
2013-02-04 08:38:00,51.2,26.4,30.11,NE,45,0.0,-999.0,38,0.00,,,0.00,Wunderground v.1.15,2013-02-04 16:38:00,
2013-02-04 08:41:00,51.2,26.4,30.11,NE,45,0.0,-999.0,38,0.00,,,0.00,Wunderground v.1.15,2013-02-04 16:41:00,
2013-02-04 08:43:00,51.2,26.4,30.11,NE,45,0.0,-999.0,38,0.00,,,0.00,Wunderground v.1.15,2013-02-04 16:43:00,
2013-02-04 08:46:00,55.2,28.7,30.12,SE,135,0.0,-999.0,36,0.00,,,0.00,Wunderground v.1.15,2013-02-04 16:46:00,
2013-02-04 08:48:00,55.2,28.7,30.12,SE,135,0.0,-999.0,36,0.00,,,0.00,Wunderground v.1.15,2013-02-04 16:48:00,
2013-02-04 08:51:00,55.2,28.7,30.12,SE,135,0.0,-999.0,36,0.00,,,0.00,Wunderground v.1.15,2013-02-04 16:51:00,
2013-02-04 08:53:00,55.2,28.7,30.12,SE,135,0.0,-999.0,36,0.00,,,0.00,Wunderground v.1.15,2013-02-04 16:53:00,
2013-02-04 08:56:00,55.2,28.7,30.12,SE,135,0.0,-999.0,36,0.00,,,0.00,Wunderground v.1.15,2013-02-04 16:56:00,
2013-02-04 08:58:00,55.2,28.7,30.12,SE,135,0.0,-999.0,36,0.00,,,0.00,Wunderground v.1.15,2013-02-04 16:58:00,
2013-02-04 09:01:00,55.2,28.7,30.12,SE,135,0.0,-999.0,36,0.00,,,0.00,Wunderground v.1.15,2013-02-04 17:01:00,
2013-02-04 09:03:00,55.2,28.7,30.12,SE,135,0.0,-999.0,36,0.00,,,0.00,Wunderground v.1.15,2013-02-04 17:03:00,
2013-02-04 09:06:00,55.2,28.7,30.12,SE,135,0.0,-999.0,36,0.00,,,0.00,Wunderground v.1.15,2013-02-04 17:06:00,
2013-02-04 09:08:00,55.2,28.7,30.12,SE,135,0.0,-999.0,36,0.00,,,0.00,Wunderground v.1.15,2013-02-04 17:08:00,
2013-02-04 09:11:00,55.2,28.7,30.12,SE,135,0.0,-999.0,36,0.00,,,0.00,Wunderground v.1.15,2013-02-04 17:11:00,
2013-02-04 09:13:00,55.2,28.7,30.12,SE,135,0.0,-999.0,36,0.00,,,0.00,Wunderground v.1.15,2013-02-04 17:13:00,
2013-02-04 09:16:00,55.4,31.5,30.12,ESE,113,1.0,-999.0,40,0.00,,,0.00,Wunderground v.1.15,2013-02-04 17:16:00,
2013-02-04 09:18:00,55.4,31.5,30.12,ESE,113,1.0,-999.0,40,0.00,,,0.00,Wunderground v.1.15,2013-02-04 17:18:00,
2013-02-04 09:23:00,55.4,31.5,30.12,ESE,113,1.0,-999.0,40,0.00,,,0.00,Wunderground v.1.15,2013-02-04 17:23:00,
2013-02-04 09:26:00,55.4,31.5,30.12,ESE,113,1.0,-999.0,40,0.00,,,0.00,Wunderground v.1.15,2013-02-04 17:26:00,
2013-02-04 09:28:00,55.4,31.5,30.12,ESE,113,1.0,-999.0,40,0.00,,,0.00,Wunderground v.1.15,2013-02-04 17:28:00,
2013-02-04 09:31:00,55.4,31.5,30.12,ESE,113,1.0,-999.0,40,0.00,,,0.00,Wunderground v.1.15,2013-02-04 17:31:00,
2013-02-04 09:33:00,55.4,31.5,30.12,ESE,113,1.0,-999.0,40,0.00,,,0.00,Wunderground v.1.15,2013-02-04 17:33:00,
2013-02-04 09:36:00,55.4,31.5,30.12,ESE,113,1.0,-999.0,40,0.00,,,0.00,Wunderground v.1.15,2013-02-04 17:36:00,
2013-02-04 09:38:00,55.4,31.5,30.12,ESE,113,1.0,-999.0,40,0.00,,,0.00,Wunderground v.1.15,2013-02-04 17:38:00,
2013-02-04 09:41:00,55.4,31.5,30.12,ESE,113,1.0,-999.0,40,0.00,,,0.00,Wunderground v.1.15,2013-02-04 17:41:00,
2013-02-04 09:43:00,55.4,31.5,30.12,ESE,113,1.0,-999.0,40,0.00,,,0.00,Wunderground v.1.15,2013-02-04 17:43:00,
2013-02-04 09:46:00,56.4,31.7,30.12,East,90,2.0,-999.0,39,0.00,,,0.00,Wunderground v.1.15,2013-02-04 17:46:00,
2013-02-04 09:48:00,56.4,31.7,30.12,East,90,2.0,-999.0,39,0.00,,,0.00,Wunderground v.1.15,2013-02-04 17:48:00,
2013-02-04 09:51:00,56.4,31.7,30.12,East,90,2.0,-999.0,39,0.00,,,0.00,Wunderground v.1.15,2013-02-04 17:51:00,
2013-02-04 09:53:00,56.4,31.7,30.12,East,90,2.0,-999.0,39,0.00,,,0.00,Wunderground v.1.15,2013-02-04 17:53:00,
2013-02-04 09:56:00,56.4,31.7,30.12,East,90,2.0,-999.0,39,0.00,,,0.00,Wunderground v.1.15,2013-02-04 17:56:00,
2013-02-04 09:58:00,56.4,31.7,30.12,East,90,2.0,-999.0,39,0.00,,,0.00,Wunderground v.1.15,2013-02-04 17:58:00,
2013-02-04 10:01:00,56.4,31.7,30.12,East,90,2.0,-999.0,39,0.00,,,0.00,Wunderground v.1.15,2013-02-04 18:01:00,
2013-02-04 10:03:00,56.4,31.7,30.12,East,90,2.0,-999.0,39,0.00,,,0.00,Wunderground v.1.15,2013-02-04 18:03:00,
2013-02-04 10:06:00,56.4,31.7,30.12,East,90,2.0,-999.0,39,0.00,,,0.00,Wunderground v.1.15,2013-02-04 18:06:00,
2013-02-04 10:08:00,56.4,31.7,30.12,East,90,2.0,-999.0,39,0.00,,,0.00,Wunderground v.1.15,2013-02-04 18:08:00,
2013-02-04 10:11:00,56.4,31.7,30.12,East,90,2.0,-999.0,39,0.00,,,0.00,Wunderground v.1.15,2013-02-04 18:11:00,
2013-02-04 10:13:00,56.4,31.7,30.12,East,90,2.0,-999.0,39,0.00,,,0.00,Wunderground v.1.15,2013-02-04 18:13:00,
2013-02-04 10:16:00,57.8,28.9,30.12,East,90,1.0,-999.0,33,0.00,,,0.00,Wunderground v.1.15,2013-02-04 18:16:00,
2013-02-04 10:18:00,57.8,28.9,30.12,East,90,1.0,-999.0,33,0.00,,,0.00,Wunderground v.1.15,2013-02-04 18:18:00,
2013-02-04 10:21:00,57.8,28.9,30.12,East,90,1.0,-999.0,33,0.00,,,0.00,Wunderground v.1.15,2013-02-04 18:21:00,
2013-02-04 10:23:00,57.8,28.9,30.12,East,90,1.0,-999.0,33,0.00,,,0.00,Wunderground v.1.15,2013-02-04 18:23:00,
2013-02-04 10:26:00,57.8,28.9,30.12,East,90,1.0,-999.0,33,0.00,,,0.00,Wunderground v.1.15,2013-02-04 18:26:00,
2013-02-04 10:28:00,57.8,28.9,30.12,East,90,1.0,-999.0,33,0.00,,,0.00,Wunderground v.1.15,2013-02-04 18:28:00,
2013-02-04 10:31:00,57.8,28.9,30.12,East,90,1.0,-999.0,33,0.00,,,0.00,Wunderground v.1.15,2013-02-04 18:31:00,
2013-02-04 10:33:00,57.8,28.9,30.12,East,90,1.0,-999.0,33,0.00,,,0.00,Wunderground v.1.15,2013-02-04 18:33:00,
2013-02-04 10:36:00,57.8,28.9,30.12,East,90,1.0,-999.0,33,0.00,,,0.00,Wunderground v.1.15,2013-02-04 18:36:00,
2013-02-04 10:38:00,57.8,28.9,30.12,East,90,1.0,-999.0,33,0.00,,,0.00,Wunderground v.1.15,2013-02-04 18:38:00,
2013-02-04 10:41:00,57.8,28.9,30.12,East,90,1.0,-999.0,33,0.00,,,0.00,Wunderground v.1.15,2013-02-04 18:41:00,
2013-02-04 10:43:00,57.8,28.9,30.12,East,90,1.0,-999.0,33,0.00,,,0.00,Wunderground v.1.15,2013-02-04 18:43:00,
2013-02-04 10:46:00,60.3,30.3,30.11,NE,45,2.0,-999.0,32,0.00,,,0.00,Wunderground v.1.15,2013-02-04 18:46:00,
2013-02-04 10:48:00,60.3,30.3,30.11,NE,45,2.0,-999.0,32,0.00,,,0.00,Wunderground v.1.15,2013-02-04 18:48:00,
2013-02-04 10:51:00,60.3,30.3,30.11,NE,45,2.0,-999.0,32,0.00,,,0.00,Wunderground v.1.15,2013-02-04 18:51:00,
2013-02-04 10:53:00,60.3,30.3,30.11,NE,45,2.0,-999.0,32,0.00,,,0.00,Wunderground v.1.15,2013-02-04 18:53:00,
2013-02-04 10:56:00,60.3,30.3,30.11,NE,45,2.0,-999.0,32,0.00,,,0.00,Wunderground v.1.15,2013-02-04 18:56:00,
2013-02-04 10:58:00,60.3,30.3,30.11,NE,45,2.0,-999.0,32,0.00,,,0.00,Wunderground v.1.15,2013-02-04 18:58:00,
2013-02-04 11:01:00,60.3,30.3,30.11,NE,45,2.0,-999.0,32,0.00,,,0.00,Wunderground v.1.15,2013-02-04 19:01:00,
2013-02-04 11:03:00,60.3,30.3,30.11,NE,45,2.0,-999.0,32,0.00,,,0.00,Wunderground v.1.15,2013-02-04 19:03:00,
2013-02-04 11:06:00,60.3,30.3,30.11,NE,45,2.0,-999.0,32,0.00,,,0.00,Wunderground v.1.15,2013-02-04 19:06:00,
2013-02-04 11:08:00,60.3,30.3,30.11,NE,45,2.0,-999.0,32,0.00,,,0.00,Wunderground v.1.15,2013-02-04 19:08:00,
2013-02-04 11:11:00,60.3,30.3,30.11,NE,45,2.0,-999.0,32,0.00,,,0.00,Wunderground v.1.15,2013-02-04 19:11:00,
2013-02-04 11:13:00,60.3,30.3,30.11,NE,45,2.0,-999.0,32,0.00,,,0.00,Wunderground v.1.15,2013-02-04 19:13:00,
2013-02-04 11:16:00,61.2,26.9,30.10,SE,135,1.0,-999.0,27,0.00,,,0.00,Wunderground v.1.15,2013-02-04 19:16:00,
2013-02-04 11:18:00,61.2,26.9,30.10,SE,135,1.0,-999.0,27,0.00,,,0.00,Wunderground v.1.15,2013-02-04 19:18:00,
2013-02-04 11:21:00,61.2,26.9,30.10,SE,135,1.0,-999.0,27,0.00,,,0.00,Wunderground v.1.15,2013-02-04 19:21:00,
2013-02-04 11:23:00,61.2,26.9,30.10,SE,135,1.0,-999.0,27,0.00,,,0.00,Wunderground v.1.15,2013-02-04 19:23:00,
2013-02-04 11:26:00,61.2,26.9,30.10,SE,135,1.0,-999.0,27,0.00,,,0.00,Wunderground v.1.15,2013-02-04 19:26:00,
2013-02-04 11:28:00,61.2,26.9,30.10,SE,135,1.0,-999.0,27,0.00,,,0.00,Wunderground v.1.15,2013-02-04 19:28:00,
2013-02-04 11:31:00,61.2,26.9,30.10,SE,135,1.0,-999.0,27,0.00,,,0.00,Wunderground v.1.15,2013-02-04 19:31:00,
2013-02-04 11:33:00,61.2,26.9,30.10,SE,135,1.0,-999.0,27,0.00,,,0.00,Wunderground v.1.15,2013-02-04 19:33:00,
2013-02-04 11:36:00,61.2,26.9,30.10,SE,135,1.0,-999.0,27,0.00,,,0.00,Wunderground v.1.15,2013-02-04 19:36:00,
2013-02-04 11:38:00,61.2,26.9,30.10,SE,135,1.0,-999.0,27,0.00,,,0.00,Wunderground v.1.15,2013-02-04 19:38:00,
2013-02-04 11:41:00,61.2,26.9,30.10,SE,135,1.0,-999.0,27,0.00,,,0.00,Wunderground v.1.15,2013-02-04 19:41:00,
2013-02-04 11:43:00,61.2,26.9,30.10,SE,135,1.0,-999.0,27,0.00,,,0.00,Wunderground v.1.15,2013-02-04 19:43:00,
2013-02-04 11:46:00,61.5,30.6,30.09,SSE,158,1.0,-999.0,31,0.00,,,0.00,Wunderground v.1.15,2013-02-04 19:46:00,
2013-02-04 11:48:00,61.5,30.6,30.09,SSE,158,1.0,-999.0,31,0.00,,,0.00,Wunderground v.1.15,2013-02-04 19:48:00,
2013-02-04 11:51:00,61.5,30.6,30.09,SSE,158,1.0,-999.0,31,0.00,,,0.00,Wunderground v.1.15,2013-02-04 19:51:00,
2013-02-04 11:53:00,61.5,30.6,30.09,SSE,158,1.0,-999.0,31,0.00,,,0.00,Wunderground v.1.15,2013-02-04 19:53:00,
2013-02-04 11:56:00,61.5,30.6,30.09,SSE,158,1.0,-999.0,31,0.00,,,0.00,Wunderground v.1.15,2013-02-04 19:56:00,
2013-02-04 12:01:00,61.5,30.6,30.09,SSE,158,1.0,-999.0,31,0.00,,,0.00,Wunderground v.1.15,2013-02-04 20:01:00,
2013-02-04 12:04:00,61.5,30.6,30.09,SSE,158,1.0,-999.0,31,0.00,,,0.00,Wunderground v.1.15,2013-02-04 20:04:00,
2013-02-04 12:06:00,61.5,30.6,30.09,SSE,158,1.0,-999.0,31,0.00,,,0.00,Wunderground v.1.15,2013-02-04 20:06:00,
2013-02-04 12:10:00,62.0,31.0,30.08,SSE,148,1.0,1.0,31,0.00,,,0.00,Wunderground v.1.15,2013-02-04 20:10:00,
2013-02-04 12:11:00,61.5,30.6,30.09,SSE,158,1.0,-999.0,31,0.00,,,0.00,Wunderground v.1.15,2013-02-04 20:11:00,
2013-02-04 12:15:00,62.4,32.1,30.08,South,188,1.0,2.0,32,0.00,,,0.00,Wunderground v.1.15,2013-02-04 20:15:00,
2013-02-04 12:16:00,62.2,34.9,30.08,SSE,158,1.0,-999.0,36,0.00,,,0.00,Wunderground v.1.15,2013-02-04 20:16:00,
2013-02-04 12:21:00,62.2,34.9,30.08,SSE,158,1.0,-999.0,36,0.00,,,0.00,Wunderground v.1.15,2013-02-04 20:21:00,
2013-02-04 12:25:00,62.0,31.8,30.08,WSW,257,2.0,3.0,32,0.00,,,0.00,Wunderground v.1.15,2013-02-04 20:25:00,
2013-02-04 12:26:00,62.2,34.9,30.08,SSE,158,1.0,-999.0,36,0.00,,,0.00,Wunderground v.1.15,2013-02-04 20:26:00,
2013-02-04 12:31:00,62.2,34.9,30.08,SSE,158,1.0,-999.0,36,0.00,,,0.00,Wunderground v.1.15,2013-02-04 20:31:00,
2013-02-04 12:35:00,62.3,35.0,30.08,WNW,285,1.0,2.0,36,0.00,,,0.00,Wunderground v.1.15,2013-02-04 20:35:00,
2013-02-04 12:36:00,62.2,34.9,30.08,SSE,158,1.0,-999.0,36,0.00,,,0.00,Wunderground v.1.15,2013-02-04 20:36:00,
2013-02-04 12:41:00,62.2,34.9,30.08,SSE,158,1.0,-999.0,36,0.00,,,0.00,Wunderground v.1.15,2013-02-04 20:41:00,
2013-02-04 12:45:00,61.9,36.0,30.07,SW,234,2.0,2.0,38,0.00,,,0.00,Wunderground v.1.15,2013-02-04 20:45:00,
2013-02-04 12:46:00,62.2,38.2,30.06,WSW,248,1.0,-999.0,41,0.00,,,0.00,Wunderground v.1.15,2013-02-04 20:46:00,
2013-02-04 12:51:00,62.2,38.2,30.06,WSW,248,1.0,-999.0,41,0.00,,,0.00,Wunderground v.1.15,2013-02-04 20:51:00,
2013-02-04 12:55:00,62.6,37.9,30.07,WSW,246,1.0,4.0,40,0.00,,,0.00,Wunderground v.1.15,2013-02-04 20:55:00,
2013-02-04 12:56:00,62.2,38.2,30.06,WSW,248,1.0,-999.0,41,0.00,,,0.00,Wunderground v.1.15,2013-02-04 20:56:00,
2013-02-04 13:01:00,62.2,38.2,30.06,WSW,248,1.0,-999.0,41,0.00,,,0.00,Wunderground v.1.15,2013-02-04 21:01:00,
2013-02-04 13:05:00,62.3,38.3,30.06,SSW,194,2.0,5.0,41,0.00,,,0.00,Wunderground v.1.15,2013-02-04 21:05:00,
2013-02-04 13:06:00,62.2,38.2,30.06,WSW,248,1.0,-999.0,41,0.00,,,0.00,Wunderground v.1.15,2013-02-04 21:06:00,
2013-02-04 13:11:00,62.2,38.2,30.06,WSW,248,1.0,-999.0,41,0.00,,,0.00,Wunderground v.1.15,2013-02-04 21:11:00,
2013-02-04 13:15:00,61.5,38.8,30.06,WSW,238,2.0,5.0,43,0.00,,,0.00,Wunderground v.1.15,2013-02-04 21:15:00,
2013-02-04 13:16:00,61.5,39.9,30.05,WSW,248,2.0,-999.0,45,0.00,,,0.00,Wunderground v.1.15,2013-02-04 21:16:00,
2013-02-04 13:20:00,61.9,39.7,30.05,SE,128,2.0,2.0,44,0.00,,,0.00,Wunderground v.1.15,2013-02-04 21:20:00,
2013-02-04 13:21:00,61.5,39.9,30.05,WSW,248,2.0,-999.0,45,0.00,,,0.00,Wunderground v.1.15,2013-02-04 21:21:00,
2013-02-04 13:26:00,61.5,39.9,30.05,WSW,248,2.0,-999.0,45,0.00,,,0.00,Wunderground v.1.15,2013-02-04 21:26:00,
2013-02-04 13:30:00,61.5,39.9,30.05,West,259,2.0,5.0,45,0.00,,,0.00,Wunderground v.1.15,2013-02-04 21:30:00,
2013-02-04 13:31:00,61.5,39.9,30.05,WSW,248,2.0,-999.0,45,0.00,,,0.00,Wunderground v.1.15,2013-02-04 21:31:00,
2013-02-04 13:36:00,61.5,39.9,30.05,WSW,248,2.0,-999.0,45,0.00,,,0.00,Wunderground v.1.15,2013-02-04 21:36:00,
2013-02-04 13:40:00,61.3,40.3,30.05,South,186,2.0,2.0,46,0.00,,,0.00,Wunderground v.1.15,2013-02-04 21:40:00,
2013-02-04 13:41:00,61.5,39.9,30.05,WSW,248,2.0,-999.0,45,0.00,,,0.00,Wunderground v.1.15,2013-02-04 21:41:00,
2013-02-04 13:46:00,60.9,41.1,30.04,WSW,248,1.0,-999.0,48,0.00,,,0.00,Wunderground v.1.15,2013-02-04 21:46:00,
2013-02-04 13:50:00,61.4,40.4,30.04,South,174,2.0,2.0,46,0.00,,,0.00,Wunderground v.1.15,2013-02-04 21:50:00,
2013-02-04 13:51:00,60.9,41.1,30.04,WSW,248,1.0,-999.0,48,0.00,,,0.00,Wunderground v.1.15,2013-02-04 21:51:00,
2013-02-04 13:56:00,60.9,41.1,30.04,WSW,248,1.0,-999.0,48,0.00,,,0.00,Wunderground v.1.15,2013-02-04 21:56:00,
2013-02-04 14:00:00,60.9,41.1,30.04,SW,235,2.0,2.0,48,0.00,,,0.00,Wunderground v.1.15,2013-02-04 22:00:00,
2013-02-04 14:01:00,60.9,41.1,30.04,WSW,248,1.0,-999.0,48,0.00,,,0.00,Wunderground v.1.15,2013-02-04 22:01:00,
2013-02-04 14:06:00,60.9,41.1,30.04,WSW,248,1.0,-999.0,48,0.00,,,0.00,Wunderground v.1.15,2013-02-04 22:06:00,
2013-02-04 14:10:00,59.9,41.2,30.04,NW,322,2.0,5.0,50,0.00,,,0.00,Wunderground v.1.15,2013-02-04 22:10:00,
2013-02-04 14:11:00,60.9,41.1,30.04,WSW,248,1.0,-999.0,48,0.00,,,0.00,Wunderground v.1.15,2013-02-04 22:11:00,
2013-02-04 14:16:00,59.8,41.1,30.04,WSW,248,1.0,-999.0,50,0.00,,,0.00,Wunderground v.1.15,2013-02-04 22:16:00,
2013-02-04 14:20:00,59.3,41.2,30.04,WSW,257,1.0,1.0,51,0.00,,,0.00,Wunderground v.1.15,2013-02-04 22:20:00,
2013-02-04 14:21:00,59.8,41.1,30.04,WSW,248,1.0,-999.0,50,0.00,,,0.00,Wunderground v.1.15,2013-02-04 22:21:00,
2013-02-04 14:26:00,59.8,41.1,30.04,WSW,248,1.0,-999.0,50,0.00,,,0.00,Wunderground v.1.15,2013-02-04 22:26:00,
2013-02-04 14:30:00,59.9,41.2,30.04,WSW,249,1.0,5.0,50,0.00,,,0.00,Wunderground v.1.15,2013-02-04 22:30:00,
2013-02-04 14:31:00,59.8,41.1,30.04,WSW,248,1.0,-999.0,50,0.00,,,0.00,Wunderground v.1.15,2013-02-04 22:31:00,
2013-02-04 14:36:00,59.8,41.1,30.04,WSW,248,1.0,-999.0,50,0.00,,,0.00,Wunderground v.1.15,2013-02-04 22:36:00,
2013-02-04 14:40:00,60.1,41.4,30.04,South,188,1.0,5.0,50,0.00,,,0.00,Wunderground v.1.15,2013-02-04 22:40:00,
2013-02-04 14:41:00,59.8,41.1,30.04,WSW,248,1.0,-999.0,50,0.00,,,0.00,Wunderground v.1.15,2013-02-04 22:41:00,
2013-02-04 14:46:00,59.5,40.8,30.04,WSW,248,1.0,-999.0,50,0.00,,,0.00,Wunderground v.1.15,2013-02-04 22:46:00,
2013-02-04 14:50:00,60.0,41.3,30.03,WSW,257,1.0,5.0,50,0.00,,,0.00,Wunderground v.1.15,2013-02-04 22:50:00,
2013-02-04 14:51:00,59.5,40.8,30.04,WSW,248,1.0,-999.0,50,0.00,,,0.00,Wunderground v.1.15,2013-02-04 22:51:00,
2013-02-04 14:56:00,59.5,40.8,30.04,WSW,248,1.0,-999.0,50,0.00,,,0.00,Wunderground v.1.15,2013-02-04 22:56:00,
2013-02-04 15:00:00,59.5,40.8,30.04,South,183,1.0,5.0,50,0.00,,,0.00,Wunderground v.1.15,2013-02-04 23:00:00,
2013-02-04 15:01:00,59.5,40.8,30.04,WSW,248,1.0,-999.0,50,0.00,,,0.00,Wunderground v.1.15,2013-02-04 23:01:00,
2013-02-04 15:06:00,59.5,40.8,30.04,WSW,248,1.0,-999.0,50,0.00,,,0.00,Wunderground v.1.15,2013-02-04 23:06:00,
2013-02-04 15:10:00,60.1,40.9,30.03,SSE,158,0.0,5.0,49,0.00,,,0.00,Wunderground v.1.15,2013-02-04 23:10:00,
2013-02-04 15:11:00,59.5,40.8,30.04,WSW,248,1.0,-999.0,50,0.00,,,0.00,Wunderground v.1.15,2013-02-04 23:11:00,
2013-02-04 15:16:00,59.1,41.0,30.03,SSE,158,0.0,-999.0,51,0.00,,,0.00,Wunderground v.1.15,2013-02-04 23:16:00,
2013-02-04 15:20:00,59.6,41.4,30.03,WNW,294,0.0,5.0,51,0.00,,,0.00,Wunderground v.1.15,2013-02-04 23:20:00,
2013-02-04 15:21:00,59.1,41.0,30.03,SSE,158,0.0,-999.0,51,0.00,,,0.00,Wunderground v.1.15,2013-02-04 23:21:00,
2013-02-04 15:26:00,59.1,41.0,30.03,SSE,158,0.0,-999.0,51,0.00,,,0.00,Wunderground v.1.15,2013-02-04 23:26:00,
2013-02-04 15:30:00,59.1,41.0,30.03,SSW,210,1.0,5.0,51,0.00,,,0.00,Wunderground v.1.15,2013-02-04 23:30:00,
2013-02-04 15:31:00,59.1,41.0,30.03,SSE,158,0.0,-999.0,51,0.00,,,0.00,Wunderground v.1.15,2013-02-04 23:31:00,
2013-02-04 15:36:00,59.1,41.0,30.03,SSE,158,0.0,-999.0,51,0.00,,,0.00,Wunderground v.1.15,2013-02-04 23:36:00,
2013-02-04 15:40:00,58.8,41.2,30.03,SSW,204,0.0,5.0,52,0.00,,,0.00,Wunderground v.1.15,2013-02-04 23:40:00,
2013-02-04 15:41:00,59.1,41.0,30.03,SSE,158,0.0,-999.0,51,0.00,,,0.00,Wunderground v.1.15,2013-02-04 23:41:00,
2013-02-04 15:46:00,58.4,41.8,30.03,WSW,248,0.0,-999.0,54,0.00,,,0.00,Wunderground v.1.15,2013-02-04 23:46:00,
2013-02-04 15:50:00,58.4,41.8,30.03,SW,219,0.0,5.0,54,0.00,,,0.00,Wunderground v.1.15,2013-02-04 23:50:00,
2013-02-04 15:51:00,58.4,41.8,30.03,WSW,248,0.0,-999.0,54,0.00,,,0.00,Wunderground v.1.15,2013-02-04 23:51:00,
2013-02-04 15:56:00,58.4,41.8,30.03,WSW,248,0.0,-999.0,54,0.00,,,0.00,Wunderground v.1.15,2013-02-04 23:56:00,
2013-02-04 16:01:00,58.4,41.8,30.03,WSW,248,0.0,-999.0,54,0.00,,,0.00,Wunderground v.1.15,2013-02-05 00:01:00,
2013-02-04 16:05:00,58.3,42.2,30.02,SSE,148,0.0,0.0,55,0.00,,,0.00,Wunderground v.1.15,2013-02-05 00:05:00,
2013-02-04 16:06:00,58.4,41.8,30.03,WSW,248,0.0,-999.0,54,0.00,,,0.00,Wunderground v.1.15,2013-02-05 00:06:00,
2013-02-04 16:11:00,58.4,41.8,30.03,WSW,248,0.0,-999.0,54,0.00,,,0.00,Wunderground v.1.15,2013-02-05 00:11:00,
2013-02-04 16:15:00,58.0,41.9,30.02,SSW,204,0.0,1.0,55,0.00,,,0.00,Wunderground v.1.15,2013-02-05 00:15:00,
2013-02-04 16:16:00,57.4,41.8,30.03,SW,225,0.0,-999.0,56,0.00,,,0.00,Wunderground v.1.15,2013-02-05 00:16:00,
2013-02-04 16:21:00,57.4,41.8,30.03,SW,225,0.0,-999.0,56,0.00,,,0.00,Wunderground v.1.15,2013-02-05 00:21:00,
2013-02-04 16:25:00,57.7,41.6,30.03,SW,215,0.0,0.0,55,0.00,,,0.00,Wunderground v.1.15,2013-02-05 00:25:00,
2013-02-04 16:26:00,57.4,41.8,30.03,SW,225,0.0,-999.0,56,0.00,,,0.00,Wunderground v.1.15,2013-02-05 00:26:00,
2013-02-04 16:31:00,57.4,41.8,30.03,SW,225,0.0,-999.0,56,0.00,,,0.00,Wunderground v.1.15,2013-02-05 00:31:00,
2013-02-04 16:35:00,57.2,42.1,30.03,WSW,239,0.0,0.0,57,0.00,,,0.00,Wunderground v.1.15,2013-02-05 00:35:00,
2013-02-04 16:36:00,57.4,41.8,30.03,SW,225,0.0,-999.0,56,0.00,,,0.00,Wunderground v.1.15,2013-02-05 00:36:00,
2013-02-04 16:41:00,57.4,41.8,30.03,SW,225,0.0,-999.0,56,0.00,,,0.00,Wunderground v.1.15,2013-02-05 00:41:00,
2013-02-04 16:45:00,56.4,42.2,30.03,WSW,241,0.0,0.0,59,0.00,,,0.00,Wunderground v.1.15,2013-02-05 00:45:00,
2013-02-04 16:46:00,55.4,42.2,30.04,WSW,248,0.0,-999.0,61,0.00,,,0.00,Wunderground v.1.15,2013-02-05 00:46:00,
2013-02-04 16:50:00,56.1,42.0,30.03,SSW,207,0.0,1.0,59,0.00,,,0.00,Wunderground v.1.15,2013-02-05 00:50:00,
2013-02-04 16:51:00,55.4,42.2,30.04,WSW,248,0.0,-999.0,61,0.00,,,0.00,Wunderground v.1.15,2013-02-05 00:51:00,
2013-02-04 16:56:00,55.4,42.2,30.04,WSW,248,0.0,-999.0,61,0.00,,,0.00,Wunderground v.1.15,2013-02-05 00:56:00,
2013-02-04 17:00:00,55.4,42.2,30.04,SSW,207,0.0,0.0,61,0.00,,,0.00,Wunderground v.1.15,2013-02-05 01:00:00,
2013-02-04 17:01:00,55.4,42.2,30.04,WSW,248,0.0,-999.0,61,0.00,,,0.00,Wunderground v.1.15,2013-02-05 01:01:00,
2013-02-04 17:06:00,55.4,42.2,30.04,WSW,248,0.0,-999.0,61,0.00,,,0.00,Wunderground v.1.15,2013-02-05 01:06:00,
2013-02-04 17:10:00,54.9,42.1,30.03,SSW,210,0.0,2.0,62,0.00,,,0.00,Wunderground v.1.15,2013-02-05 01:10:00,
2013-02-04 17:11:00,55.4,42.2,30.04,WSW,248,0.0,-999.0,61,0.00,,,0.00,Wunderground v.1.15,2013-02-05 01:11:00,
2013-02-04 17:16:00,53.9,42.0,30.03,SSW,203,0.0,-999.0,64,0.00,,,0.00,Wunderground v.1.15,2013-02-05 01:16:00,
2013-02-04 17:20:00,54.5,42.2,30.03,SSW,210,0.0,2.0,63,0.00,,,0.00,Wunderground v.1.15,2013-02-05 01:20:00,
2013-02-04 17:21:00,53.9,42.0,30.03,SSW,203,0.0,-999.0,64,0.00,,,0.00,Wunderground v.1.15,2013-02-05 01:21:00,
2013-02-04 17:26:00,53.9,42.0,30.03,SSW,203,0.0,-999.0,64,0.00,,,0.00,Wunderground v.1.15,2013-02-05 01:26:00,
2013-02-04 17:30:00,54.0,42.1,30.03,SSW,210,0.0,2.0,64,0.00,,,0.00,Wunderground v.1.15,2013-02-05 01:30:00,
2013-02-04 17:31:00,53.9,42.0,30.03,SSW,203,0.0,-999.0,64,0.00,,,0.00,Wunderground v.1.15,2013-02-05 01:31:00,
2013-02-04 17:36:00,53.9,42.0,30.03,SSW,203,0.0,-999.0,64,0.00,,,0.00,Wunderground v.1.15,2013-02-05 01:36:00,
2013-02-04 17:40:00,53.8,42.3,30.03,SSW,210,0.0,2.0,65,0.00,,,0.00,Wunderground v.1.15,2013-02-05 01:40:00,
2013-02-04 17:41:00,53.9,42.0,30.03,SSW,203,0.0,-999.0,64,0.00,,,0.00,Wunderground v.1.15,2013-02-05 01:41:00,
2013-02-04 17:46:00,53.2,42.5,30.04,SSW,203,0.0,-999.0,67,0.00,,,0.00,Wunderground v.1.15,2013-02-05 01:46:00,
2013-02-04 17:50:00,53.5,42.4,30.04,SSW,210,0.0,2.0,66,0.00,,,0.00,Wunderground v.1.15,2013-02-05 01:50:00,
2013-02-04 17:51:00,53.2,42.5,30.04,SSW,203,0.0,-999.0,67,0.00,,,0.00,Wunderground v.1.15,2013-02-05 01:51:00,
2013-02-04 17:55:00,53.3,42.6,30.03,SSW,208,0.0,2.0,67,0.00,,,0.00,Wunderground v.1.15,2013-02-05 01:55:00,
2013-02-04 17:56:00,53.2,42.5,30.04,SSW,203,0.0,-999.0,67,0.00,,,0.00,Wunderground v.1.15,2013-02-05 01:56:00,
2013-02-04 18:01:00,53.2,42.5,30.04,SSW,203,0.0,-999.0,67,0.00,,,0.00,Wunderground v.1.15,2013-02-05 02:01:00,
2013-02-04 18:05:00,53.1,42.4,30.03,SSW,208,0.0,2.0,67,0.00,,,0.00,Wunderground v.1.15,2013-02-05 02:05:00,
2013-02-04 18:06:00,53.2,42.5,30.04,SSW,203,0.0,-999.0,67,0.00,,,0.00,Wunderground v.1.15,2013-02-05 02:06:00,
2013-02-04 18:10:00,53.1,42.8,30.03,SSW,208,0.0,2.0,68,0.00,,,0.00,Wunderground v.1.15,2013-02-05 02:10:00,
2013-02-04 18:11:00,53.2,42.5,30.04,SSW,203,0.0,-999.0,67,0.00,,,0.00,Wunderground v.1.15,2013-02-05 02:11:00,
2013-02-04 18:15:00,53.0,42.7,30.03,SSW,208,0.0,2.0,68,0.00,,,0.00,Wunderground v.1.15,2013-02-05 02:15:00,
2013-02-04 18:16:00,52.5,42.2,30.03,N/A,-737280,0.0,-999.0,68,0.00,,,0.00,Wunderground v.1.15,2013-02-05 02:16:00,
2013-02-04 18:21:00,52.5,42.2,30.03,N/A,-737280,0.0,-999.0,68,0.00,,,0.00,Wunderground v.1.15,2013-02-05 02:21:00,
2013-02-04 18:25:00,52.7,42.4,30.03,SSW,207,0.0,2.0,68,0.00,,,0.00,Wunderground v.1.15,2013-02-05 02:25:00,
2013-02-04 18:26:00,52.5,42.2,30.03,N/A,-737280,0.0,-999.0,68,0.00,,,0.00,Wunderground v.1.15,2013-02-05 02:26:00,
2013-02-04 18:31:00,52.5,42.2,30.03,N/A,-737280,0.0,-999.0,68,0.00,,,0.00,Wunderground v.1.15,2013-02-05 02:31:00,
2013-02-04 18:35:00,52.3,42.4,30.03,SSW,208,0.0,2.0,69,0.00,,,0.00,Wunderground v.1.15,2013-02-05 02:35:00,
2013-02-04 18:36:00,52.5,42.2,30.03,N/A,-737280,0.0,-999.0,68,0.00,,,0.00,Wunderground v.1.15,2013-02-05 02:36:00,
2013-02-04 18:40:00,52.1,42.2,30.03,NE,56,0.0,2.0,69,0.00,,,0.00,Wunderground v.1.15,2013-02-05 02:40:00,
2013-02-04 18:41:00,52.5,42.2,30.03,N/A,-737280,0.0,-999.0,68,0.00,,,0.00,Wunderground v.1.15,2013-02-05 02:41:00,
2013-02-04 18:46:00,51.3,42.2,30.03,NE,45,0.0,-999.0,71,0.00,,,0.00,Wunderground v.1.15,2013-02-05 02:46:00,
2013-02-04 18:50:00,51.7,42.2,30.03,NE,56,0.0,2.0,70,0.00,,,0.00,Wunderground v.1.15,2013-02-05 02:50:00,
2013-02-04 18:51:00,51.3,42.2,30.03,NE,45,0.0,-999.0,71,0.00,,,0.00,Wunderground v.1.15,2013-02-05 02:51:00,
2013-02-04 18:56:00,51.3,42.2,30.03,NE,45,0.0,-999.0,71,0.00,,,0.00,Wunderground v.1.15,2013-02-05 02:56:00,
2013-02-04 19:00:00,51.3,42.2,30.03,ESE,103,0.0,2.0,71,0.00,,,0.00,Wunderground v.1.15,2013-02-05 03:00:00,
2013-02-04 19:01:00,51.3,42.2,30.03,NE,45,0.0,-999.0,71,0.00,,,0.00,Wunderground v.1.15,2013-02-05 03:01:00,
2013-02-04 19:06:00,51.3,42.2,30.03,NE,45,0.0,-999.0,71,0.00,,,0.00,Wunderground v.1.15,2013-02-05 03:06:00,
2013-02-04 19:11:00,51.3,42.2,30.03,NE,45,0.0,-999.0,71,0.00,,,0.00,Wunderground v.1.15,2013-02-05 03:11:00,
2013-02-04 19:16:00,51.0,41.9,30.03,East,90,0.0,-999.0,71,0.00,,,0.00,Wunderground v.1.15,2013-02-05 03:16:00,
2013-02-04 19:21:00,51.0,41.9,30.03,East,90,0.0,-999.0,71,0.00,,,0.00,Wunderground v.1.15,2013-02-05 03:21:00,
2013-02-04 19:26:00,51.0,41.9,30.03,East,90,0.0,-999.0,71,0.00,,,0.00,Wunderground v.1.15,2013-02-05 03:26:00,
2013-02-04 19:31:00,51.0,41.9,30.03,East,90,0.0,-999.0,71,0.00,,,0.00,Wunderground v.1.15,2013-02-05 03:31:00,
2013-02-04 19:36:00,51.0,41.9,30.03,East,90,0.0,-999.0,71,0.00,,,0.00,Wunderground v.1.15,2013-02-05 03:36:00,
2013-02-04 19:41:00,51.0,41.9,30.03,East,90,0.0,-999.0,71,0.00,,,0.00,Wunderground v.1.15,2013-02-05 03:41:00,
2013-02-04 19:46:00,50.6,41.9,30.03,ENE,68,1.0,-999.0,72,0.00,,,0.00,Wunderground v.1.15,2013-02-05 03:46:00,
2013-02-04 19:51:00,50.6,41.9,30.03,ENE,68,1.0,-999.0,72,0.00,,,0.00,Wunderground v.1.15,2013-02-05 03:51:00,
2013-02-04 19:56:00,50.6,41.9,30.03,ENE,68,1.0,-999.0,72,0.00,,,0.00,Wunderground v.1.15,2013-02-05 03:56:00,
2013-02-04 20:01:00,50.6,41.9,30.03,ENE,68,1.0,-999.0,72,0.00,,,0.00,Wunderground v.1.15,2013-02-05 04:01:00,
2013-02-04 20:06:00,50.6,41.9,30.03,ENE,68,1.0,-999.0,72,0.00,,,0.00,Wunderground v.1.15,2013-02-05 04:06:00,
2013-02-04 20:11:00,50.6,41.9,30.03,ENE,68,1.0,-999.0,72,0.00,,,0.00,Wunderground v.1.15,2013-02-05 04:11:00,
2013-02-04 20:16:00,50.6,42.3,30.03,ENE,68,1.0,-999.0,73,0.00,,,0.00,Wunderground v.1.15,2013-02-05 04:16:00,
2013-02-04 20:21:00,50.6,42.3,30.03,ENE,68,1.0,-999.0,73,0.00,,,0.00,Wunderground v.1.15,2013-02-05 04:21:00,
2013-02-04 20:26:00,50.6,42.3,30.03,ENE,68,1.0,-999.0,73,0.00,,,0.00,Wunderground v.1.15,2013-02-05 04:26:00,
2013-02-04 20:31:00,50.6,42.3,30.03,ENE,68,1.0,-999.0,73,0.00,,,0.00,Wunderground v.1.15,2013-02-05 04:31:00,
2013-02-04 20:36:00,50.6,42.3,30.03,ENE,68,1.0,-999.0,73,0.00,,,0.00,Wunderground v.1.15,2013-02-05 04:36:00,
2013-02-04 20:41:00,50.6,42.3,30.03,ENE,68,1.0,-999.0,73,0.00,,,0.00,Wunderground v.1.15,2013-02-05 04:41:00,
2013-02-04 20:46:00,50.0,42.0,30.02,East,90,1.0,-999.0,74,0.00,,,0.00,Wunderground v.1.15,2013-02-05 04:46:00,
2013-02-04 20:51:00,50.0,42.0,30.02,East,90,1.0,-999.0,74,0.00,,,0.00,Wunderground v.1.15,2013-02-05 04:51:00,
2013-02-04 20:56:00,50.0,42.0,30.02,East,90,1.0,-999.0,74,0.00,,,0.00,Wunderground v.1.15,2013-02-05 04:56:00,
2013-02-04 21:01:00,50.0,42.0,30.02,East,90,1.0,-999.0,74,0.00,,,0.00,Wunderground v.1.15,2013-02-05 05:01:00,
2013-02-04 21:06:00,50.0,42.0,30.02,East,90,1.0,-999.0,74,0.00,,,0.00,Wunderground v.1.15,2013-02-05 05:06:00,
2013-02-04 21:11:00,50.0,42.0,30.02,East,90,1.0,-999.0,74,0.00,,,0.00,Wunderground v.1.15,2013-02-05 05:11:00,
2013-02-04 21:16:00,50.0,41.7,30.02,East,90,1.0,-999.0,73,0.00,,,0.00,Wunderground v.1.15,2013-02-05 05:16:00,
2013-02-04 21:21:00,50.0,41.7,30.02,East,90,1.0,-999.0,73,0.00,,,0.00,Wunderground v.1.15,2013-02-05 05:21:00,
2013-02-04 21:26:00,50.0,41.7,30.02,East,90,1.0,-999.0,73,0.00,,,0.00,Wunderground v.1.15,2013-02-05 05:26:00,
2013-02-04 21:31:00,50.0,41.7,30.02,East,90,1.0,-999.0,73,0.00,,,0.00,Wunderground v.1.15,2013-02-05 05:31:00,
2013-02-04 21:36:00,50.0,41.7,30.02,East,90,1.0,-999.0,73,0.00,,,0.00,Wunderground v.1.15,2013-02-05 05:36:00,
2013-02-04 21:41:00,50.0,41.7,30.02,East,90,1.0,-999.0,73,0.00,,,0.00,Wunderground v.1.15,2013-02-05 05:41:00,
2013-02-04 21:46:00,50.4,41.3,30.02,East,90,1.0,-999.0,71,0.00,,,0.00,Wunderground v.1.15,2013-02-05 05:46:00,
2013-02-04 21:51:00,50.4,41.3,30.02,East,90,1.0,-999.0,71,0.00,,,0.00,Wunderground v.1.15,2013-02-05 05:51:00,
2013-02-04 21:56:00,50.4,41.3,30.02,East,90,1.0,-999.0,71,0.00,,,0.00,Wunderground v.1.15,2013-02-05 05:56:00,
2013-02-04 22:01:00,50.4,41.3,30.02,East,90,1.0,-999.0,71,0.00,,,0.00,Wunderground v.1.15,2013-02-05 06:01:00,
2013-02-04 22:06:00,50.4,41.3,30.02,East,90,1.0,-999.0,71,0.00,,,0.00,Wunderground v.1.15,2013-02-05 06:06:00,
2013-02-04 22:11:00,50.4,41.3,30.02,East,90,1.0,-999.0,71,0.00,,,0.00,Wunderground v.1.15,2013-02-05 06:11:00,
2013-02-04 22:16:00,50.1,40.7,30.02,East,90,0.0,-999.0,70,0.00,,,0.00,Wunderground v.1.15,2013-02-05 06:16:00,
2013-02-04 22:21:00,50.1,40.7,30.02,East,90,0.0,-999.0,70,0.00,,,0.00,Wunderground v.1.15,2013-02-05 06:21:00,
2013-02-04 22:26:00,50.1,40.7,30.02,East,90,0.0,-999.0,70,0.00,,,0.00,Wunderground v.1.15,2013-02-05 06:26:00,
2013-02-04 22:31:00,50.1,40.7,30.02,East,90,0.0,-999.0,70,0.00,,,0.00,Wunderground v.1.15,2013-02-05 06:31:00,
2013-02-04 22:36:00,50.1,40.7,30.02,East,90,0.0,-999.0,70,0.00,,,0.00,Wunderground v.1.15,2013-02-05 06:36:00,
2013-02-04 22:41:00,50.1,40.7,30.02,East,90,0.0,-999.0,70,0.00,,,0.00,Wunderground v.1.15,2013-02-05 06:41:00,
2013-02-04 22:46:00,50.0,39.8,30.02,East,90,0.0,-999.0,68,0.00,,,0.00,Wunderground v.1.15,2013-02-05 06:46:00,
2013-02-04 22:51:00,50.0,39.8,30.02,East,90,0.0,-999.0,68,0.00,,,0.00,Wunderground v.1.15,2013-02-05 06:51:00,
2013-02-04 22:56:00,50.0,39.8,30.02,East,90,0.0,-999.0,68,0.00,,,0.00,Wunderground v.1.15,2013-02-05 06:56:00,
2013-02-04 23:01:00,50.0,39.8,30.02,East,90,0.0,-999.0,68,0.00,,,0.00,Wunderground v.1.15,2013-02-05 07:01:00,
2013-02-04 23:06:00,50.0,39.8,30.02,East,90,0.0,-999.0,68,0.00,,,0.00,Wunderground v.1.15,2013-02-05 07:06:00,
2013-02-04 23:11:00,50.0,39.8,30.02,East,90,0.0,-999.0,68,0.00,,,0.00,Wunderground v.1.15,2013-02-05 07:11:00,
2013-02-04 23:16:00,49.1,40.1,30.02,East,90,0.0,-999.0,71,0.00,,,0.00,Wunderground v.1.15,2013-02-05 07:16:00,
2013-02-04 23:21:00,49.1,40.1,30.02,East,90,0.0,-999.0,71,0.00,,,0.00,Wunderground v.1.15,2013-02-05 07:21:00,
2013-02-04 23:26:00,49.1,40.1,30.02,East,90,0.0,-999.0,71,0.00,,,0.00,Wunderground v.1.15,2013-02-05 07:26:00,
2013-02-04 23:31:00,49.1,40.1,30.02,East,90,0.0,-999.0,71,0.00,,,0.00,Wunderground v.1.15,2013-02-05 07:31:00,
2013-02-04 23:36:00,49.1,40.1,30.02,East,90,0.0,-999.0,71,0.00,,,0.00,Wunderground v.1.15,2013-02-05 07:36:00,
2013-02-04 23:41:00,49.1,40.1,30.02,East,90,0.0,-999.0,71,0.00,,,0.00,Wunderground v.1.15,2013-02-05 07:41:00,
2013-02-04 23:46:00,48.9,39.2,30.02,East,90,0.0,-999.0,69,0.00,,,0.00,Wunderground v.1.15,2013-02-05 07:46:00,
2013-02-04 23:51:00,48.9,39.2,30.02,East,90,0.0,-999.0,69,0.00,,,0.00,Wunderground v.1.15,2013-02-05 07:51:00,
2013-02-04 23:56:00,48.9,39.2,30.02,East,90,0.0,-999.0,69,0.00,,,0.00,Wunderground v.1.15,2013-02-05 07:56:00,